sensor_id;sensor_type;location;lat;lon;timestamp;P1;durP1;ratioP1;P2;durP2;ratioP2
18176;SDS011;9213;50.858;3.964;2022-07-12T00:00:47;7.10;;;5.97;;
18176;SDS011;9213;50.858;3.964;2022-07-12T00:03:15;6.88;;;6.28;;
18176;SDS011;9213;50.858;3.964;2022-07-12T00:05:42;7.40;;;5.95;;
18176;SDS011;9213;50.858;3.964;2022-07-12T00:08:09;6.50;;;5.95;;
18176;SDS011;9213;50.858;3.964;2022-07-12T00:10:36;7.15;;;6.50;;
18176;SDS011;9213;50.858;3.964;2022-07-12T00:13:03;7.10;;;6.30;;
18176;SDS011;9213;50.858;3.964;2022-07-12T00:15:30;7.40;;;6.55;;
18176;SDS011;9213;50.858;3.964;2022-07-12T00:17:57;7.60;;;6.60;;
18176;SDS011;9213;50.858;3.964;2022-07-12T00:20:25;9.07;;;6.55;;
18176;SDS011;9213;50.858;3.964;2022-07-12T00:22:52;7.65;;;6.95;;
18176;SDS011;9213;50.858;3.964;2022-07-12T00:25:19;7.80;;;7.00;;
18176;SDS011;9213;50.858;3.964;2022-07-12T00:27:46;8.07;;;7.30;;
18176;SDS011;9213;50.858;3.964;2022-07-12T00:30:13;7.45;;;6.70;;
18176;SDS011;9213;50.858;3.964;2022-07-12T00:32:40;8.77;;;7.20;;
18176;SDS011;9213;50.858;3.964;2022-07-12T00:35:07;7.50;;;6.68;;
18176;SDS011;9213;50.858;3.964;2022-07-12T00:37:35;7.50;;;6.80;;
18176;SDS011;9213;50.858;3.964;2022-07-12T00:40:03;7.45;;;6.75;;
18176;SDS011;9213;50.858;3.964;2022-07-12T00:42:31;7.78;;;7.07;;
18176;SDS011;9213;50.858;3.964;2022-07-12T00:44:58;8.80;;;7.47;;
18176;SDS011;9213;50.858;3.964;2022-07-12T00:47:27;7.43;;;6.72;;
18176;SDS011;9213;50.858;3.964;2022-07-12T00:49:58;7.10;;;6.50;;
18176;SDS011;9213;50.858;3.964;2022-07-12T00:52:25;6.93;;;6.32;;
18176;SDS011;9213;50.858;3.964;2022-07-12T00:54:54;10.63;;;6.78;;
18176;SDS011;9213;50.858;3.964;2022-07-12T00:57:20;7.22;;;6.63;;
18176;SDS011;9213;50.858;3.964;2022-07-12T00:59:47;7.43;;;6.55;;
18176;SDS011;9213;50.858;3.964;2022-07-12T01:02:15;8.70;;;6.57;;
18176;SDS011;9213;50.858;3.964;2022-07-12T01:04:41;7.20;;;6.60;;
18176;SDS011;9213;50.858;3.964;2022-07-12T01:07:10;7.40;;;6.70;;
18176;SDS011;9213;50.858;3.964;2022-07-12T01:09:37;7.65;;;6.85;;
18176;SDS011;9213;50.858;3.964;2022-07-12T01:12:06;11.02;;;6.70;;
18176;SDS011;9213;50.858;3.964;2022-07-12T01:14:35;7.70;;;6.97;;
18176;SDS011;9213;50.858;3.964;2022-07-12T01:17:02;7.40;;;6.65;;
18176;SDS011;9213;50.858;3.964;2022-07-12T01:19:29;6.82;;;6.18;;
18176;SDS011;9213;50.858;3.964;2022-07-12T01:21:57;7.88;;;7.18;;
18176;SDS011;9213;50.858;3.964;2022-07-12T01:24:29;7.80;;;7.00;;
18176;SDS011;9213;50.858;3.964;2022-07-12T01:26:56;7.60;;;6.82;;
18176;SDS011;9213;50.858;3.964;2022-07-12T01:29:23;7.57;;;6.72;;
18176;SDS011;9213;50.858;3.964;2022-07-12T01:31:50;7.53;;;6.82;;
18176;SDS011;9213;50.858;3.964;2022-07-12T01:34:17;7.97;;;7.18;;
18176;SDS011;9213;50.858;3.964;2022-07-12T01:36:46;7.13;;;6.53;;
18176;SDS011;9213;50.858;3.964;2022-07-12T01:39:13;7.32;;;6.63;;
18176;SDS011;9213;50.858;3.964;2022-07-12T01:41:42;8.05;;;7.25;;
18176;SDS011;9213;50.858;3.964;2022-07-12T01:44:09;7.23;;;6.30;;
18176;SDS011;9213;50.858;3.964;2022-07-12T01:46:36;8.13;;;6.30;;
18176;SDS011;9213;50.858;3.964;2022-07-12T01:49:03;7.90;;;7.15;;
18176;SDS011;9213;50.858;3.964;2022-07-12T01:51:31;7.72;;;7.00;;
18176;SDS011;9213;50.858;3.964;2022-07-12T01:53:58;7.85;;;7.05;;
18176;SDS011;9213;50.858;3.964;2022-07-12T01:56:25;7.82;;;7.03;;
18176;SDS011;9213;50.858;3.964;2022-07-12T01:58:53;8.43;;;7.53;;
18176;SDS011;9213;50.858;3.964;2022-07-12T02:01:20;7.38;;;6.78;;
18176;SDS011;9213;50.858;3.964;2022-07-12T02:03:47;7.75;;;6.88;;
18176;SDS011;9213;50.858;3.964;2022-07-12T02:06:14;7.70;;;7.00;;
18176;SDS011;9213;50.858;3.964;2022-07-12T02:08:41;8.23;;;7.23;;
18176;SDS011;9213;50.858;3.964;2022-07-12T02:11:08;8.32;;;7.30;;
18176;SDS011;9213;50.858;3.964;2022-07-12T02:13:35;8.83;;;6.80;;
18176;SDS011;9213;50.858;3.964;2022-07-12T02:16:03;7.68;;;6.75;;
18176;SDS011;9213;50.858;3.964;2022-07-12T02:18:31;7.82;;;7.05;;
18176;SDS011;9213;50.858;3.964;2022-07-12T02:20:59;11.73;;;7.53;;
18176;SDS011;9213;50.858;3.964;2022-07-12T02:23:26;8.83;;;7.17;;
18176;SDS011;9213;50.858;3.964;2022-07-12T02:25:53;8.00;;;7.30;;
18176;SDS011;9213;50.858;3.964;2022-07-12T02:28:20;9.73;;;7.30;;
18176;SDS011;9213;50.858;3.964;2022-07-12T02:30:47;8.30;;;6.70;;
18176;SDS011;9213;50.858;3.964;2022-07-12T02:33:15;7.97;;;7.10;;
18176;SDS011;9213;50.858;3.964;2022-07-12T02:35:42;7.40;;;6.70;;
18176;SDS011;9213;50.858;3.964;2022-07-12T02:38:10;7.60;;;6.90;;
18176;SDS011;9213;50.858;3.964;2022-07-12T02:40:37;7.50;;;6.80;;
18176;SDS011;9213;50.858;3.964;2022-07-12T02:43:19;7.13;;;6.53;;
18176;SDS011;9213;50.858;3.964;2022-07-12T02:45:46;7.80;;;7.10;;
18176;SDS011;9213;50.858;3.964;2022-07-12T02:48:13;7.13;;;6.53;;
18176;SDS011;9213;50.858;3.964;2022-07-12T02:50:41;7.70;;;6.80;;
18176;SDS011;9213;50.858;3.964;2022-07-12T02:53:09;8.10;;;6.93;;
18176;SDS011;9213;50.858;3.964;2022-07-12T02:55:36;7.33;;;6.63;;
18176;SDS011;9213;50.858;3.964;2022-07-12T02:58:04;8.00;;;7.30;;
18176;SDS011;9213;50.858;3.964;2022-07-12T03:00:32;9.60;;;6.83;;
18176;SDS011;9213;50.858;3.964;2022-07-12T03:02:59;9.07;;;7.50;;
18176;SDS011;9213;50.858;3.964;2022-07-12T03:05:26;8.47;;;7.63;;
18176;SDS011;9213;50.858;3.964;2022-07-12T03:07:55;7.65;;;6.88;;
18176;SDS011;9213;50.858;3.964;2022-07-12T03:10:21;9.53;;;7.93;;
18176;SDS011;9213;50.858;3.964;2022-07-12T03:12:48;7.97;;;6.80;;
18176;SDS011;9213;50.858;3.964;2022-07-12T03:15:15;8.83;;;7.10;;
18176;SDS011;9213;50.858;3.964;2022-07-12T03:17:42;9.13;;;7.10;;
18176;SDS011;9213;50.858;3.964;2022-07-12T03:20:09;7.97;;;7.17;;
18176;SDS011;9213;50.858;3.964;2022-07-12T03:22:39;7.77;;;7.07;;
18176;SDS011;9213;50.858;3.964;2022-07-12T03:25:07;10.47;;;7.93;;
18176;SDS011;9213;50.858;3.964;2022-07-12T03:27:35;7.73;;;7.10;;
18176;SDS011;9213;50.858;3.964;2022-07-12T03:30:03;7.65;;;6.68;;
18176;SDS011;9213;50.858;3.964;2022-07-12T03:32:30;8.00;;;7.03;;
18176;SDS011;9213;50.858;3.964;2022-07-12T03:34:57;8.07;;;7.00;;
18176;SDS011;9213;50.858;3.964;2022-07-12T03:37:24;7.90;;;7.10;;
18176;SDS011;9213;50.858;3.964;2022-07-12T03:39:51;7.87;;;7.17;;
18176;SDS011;9213;50.858;3.964;2022-07-12T03:42:19;7.80;;;7.10;;
18176;SDS011;9213;50.858;3.964;2022-07-12T03:44:46;7.60;;;6.90;;
18176;SDS011;9213;50.858;3.964;2022-07-12T03:47:13;8.33;;;6.90;;
18176;SDS011;9213;50.858;3.964;2022-07-12T03:49:40;9.10;;;7.37;;
18176;SDS011;9213;50.858;3.964;2022-07-12T03:52:07;7.40;;;6.70;;
18176;SDS011;9213;50.858;3.964;2022-07-12T03:54:34;8.57;;;7.13;;
18176;SDS011;9213;50.858;3.964;2022-07-12T03:57:01;8.73;;;7.70;;
18176;SDS011;9213;50.858;3.964;2022-07-12T03:59:41;8.93;;;7.07;;
18176;SDS011;9213;50.858;3.964;2022-07-12T04:02:08;10.90;;;8.13;;
18176;SDS011;9213;50.858;3.964;2022-07-12T04:04:35;11.27;;;7.78;;
18176;SDS011;9213;50.858;3.964;2022-07-12T04:07:02;9.23;;;8.30;;
18176;SDS011;9213;50.858;3.964;2022-07-12T04:09:30;9.47;;;7.80;;
18176;SDS011;9213;50.858;3.964;2022-07-12T04:11:57;10.73;;;8.10;;
18176;SDS011;9213;50.858;3.964;2022-07-12T04:14:24;8.50;;;7.60;;
18176;SDS011;9213;50.858;3.964;2022-07-12T04:16:53;8.70;;;7.80;;
18176;SDS011;9213;50.858;3.964;2022-07-12T04:19:20;8.68;;;7.50;;
18176;SDS011;9213;50.858;3.964;2022-07-12T04:21:49;10.23;;;8.30;;
18176;SDS011;9213;50.858;3.964;2022-07-12T04:24:16;10.50;;;8.13;;
18176;SDS011;9213;50.858;3.964;2022-07-12T04:26:42;10.73;;;8.20;;
18176;SDS011;9213;50.858;3.964;2022-07-12T04:29:09;9.20;;;8.30;;
18176;SDS011;9213;50.858;3.964;2022-07-12T04:31:36;9.30;;;7.27;;
18176;SDS011;9213;50.858;3.964;2022-07-12T04:34:05;10.90;;;8.23;;
18176;SDS011;9213;50.858;3.964;2022-07-12T04:36:31;9.93;;;8.50;;
18176;SDS011;9213;50.858;3.964;2022-07-12T04:38:59;10.07;;;9.03;;
18176;SDS011;9213;50.858;3.964;2022-07-12T04:41:26;9.80;;;8.77;;
18176;SDS011;9213;50.858;3.964;2022-07-12T04:43:52;10.33;;;8.17;;
18176;SDS011;9213;50.858;3.964;2022-07-12T04:46:19;9.23;;;8.33;;
18176;SDS011;9213;50.858;3.964;2022-07-12T04:48:46;9.10;;;8.30;;
18176;SDS011;9213;50.858;3.964;2022-07-12T04:51:14;11.03;;;9.30;;
18176;SDS011;9213;50.858;3.964;2022-07-12T04:53:42;10.97;;;9.87;;
18176;SDS011;9213;50.858;3.964;2022-07-12T04:56:09;11.70;;;9.43;;
18176;SDS011;9213;50.858;3.964;2022-07-12T04:58:36;14.38;;;9.40;;
18176;SDS011;9213;50.858;3.964;2022-07-12T05:01:03;13.00;;;9.32;;
18176;SDS011;9213;50.858;3.964;2022-07-12T05:03:32;12.95;;;9.77;;
18176;SDS011;9213;50.858;3.964;2022-07-12T05:05:59;11.98;;;9.27;;
18176;SDS011;9213;50.858;3.964;2022-07-12T05:08:27;12.15;;;9.57;;
18176;SDS011;9213;50.858;3.964;2022-07-12T05:10:54;17.08;;;9.30;;
18176;SDS011;9213;50.858;3.964;2022-07-12T05:13:21;12.95;;;9.68;;
18176;SDS011;9213;50.858;3.964;2022-07-12T05:15:48;12.88;;;8.98;;
18176;SDS011;9213;50.858;3.964;2022-07-12T05:18:15;10.10;;;9.13;;
18176;SDS011;9213;50.858;3.964;2022-07-12T05:20:42;11.02;;;9.30;;
18176;SDS011;9213;50.858;3.964;2022-07-12T05:23:09;9.10;;;8.30;;
18176;SDS011;9213;50.858;3.964;2022-07-12T05:25:37;9.70;;;8.70;;
18176;SDS011;9213;50.858;3.964;2022-07-12T05:28:04;9.48;;;8.68;;
18176;SDS011;9213;50.858;3.964;2022-07-12T05:30:31;9.73;;;8.93;;
18176;SDS011;9213;50.858;3.964;2022-07-12T05:32:58;10.40;;;9.30;;
18176;SDS011;9213;50.858;3.964;2022-07-12T05:35:25;10.20;;;8.68;;
18176;SDS011;9213;50.858;3.964;2022-07-12T05:37:52;10.05;;;9.00;;
18176;SDS011;9213;50.858;3.964;2022-07-12T05:40:19;9.80;;;8.80;;
18176;SDS011;9213;50.858;3.964;2022-07-12T05:42:47;9.32;;;8.38;;
18176;SDS011;9213;50.858;3.964;2022-07-12T05:45:14;12.02;;;8.75;;
18176;SDS011;9213;50.858;3.964;2022-07-12T05:47:41;10.25;;;9.23;;
18176;SDS011;9213;50.858;3.964;2022-07-12T05:50:08;10.48;;;8.95;;
18176;SDS011;9213;50.858;3.964;2022-07-12T05:52:35;10.40;;;8.85;;
18176;SDS011;9213;50.858;3.964;2022-07-12T05:55:19;9.30;;;8.50;;
18176;SDS011;9213;50.858;3.964;2022-07-12T05:57:47;9.35;;;8.35;;
18176;SDS011;9213;50.858;3.964;2022-07-12T06:00:14;9.30;;;8.45;;
18176;SDS011;9213;50.858;3.964;2022-07-12T06:02:41;10.50;;;9.00;;
18176;SDS011;9213;50.858;3.964;2022-07-12T06:05:08;9.37;;;8.47;;
18176;SDS011;9213;50.858;3.964;2022-07-12T06:07:35;12.90;;;9.02;;
18176;SDS011;9213;50.858;3.964;2022-07-12T06:10:02;12.05;;;9.18;;
18176;SDS011;9213;50.858;3.964;2022-07-12T06:12:29;10.63;;;9.63;;
18176;SDS011;9213;50.858;3.964;2022-07-12T06:14:58;10.70;;;8.73;;
18176;SDS011;9213;50.858;3.964;2022-07-12T06:17:24;10.15;;;9.30;;
18176;SDS011;9213;50.858;3.964;2022-07-12T06:19:51;9.93;;;8.93;;
18176;SDS011;9213;50.858;3.964;2022-07-12T06:22:18;11.32;;;9.15;;
18176;SDS011;9213;50.858;3.964;2022-07-12T06:24:46;12.10;;;9.10;;
18176;SDS011;9213;50.858;3.964;2022-07-12T06:27:13;12.52;;;9.85;;
18176;SDS011;9213;50.858;3.964;2022-07-12T06:29:39;10.25;;;9.25;;
18176;SDS011;9213;50.858;3.964;2022-07-12T06:32:10;9.75;;;8.80;;
18176;SDS011;9213;50.858;3.964;2022-07-12T06:34:37;11.57;;;8.98;;
18176;SDS011;9213;50.858;3.964;2022-07-12T06:37:04;9.90;;;9.00;;
18176;SDS011;9213;50.858;3.964;2022-07-12T06:39:33;10.35;;;8.95;;
18176;SDS011;9213;50.858;3.964;2022-07-12T06:42:00;10.07;;;8.52;;
18176;SDS011;9213;50.858;3.964;2022-07-12T06:44:28;11.55;;;8.60;;
18176;SDS011;9213;50.858;3.964;2022-07-12T06:46:56;9.63;;;8.48;;
18176;SDS011;9213;50.858;3.964;2022-07-12T06:49:24;9.93;;;8.40;;
18176;SDS011;9213;50.858;3.964;2022-07-12T06:51:51;9.20;;;8.27;;
18176;SDS011;9213;50.858;3.964;2022-07-12T06:54:18;9.07;;;8.15;;
18176;SDS011;9213;50.858;3.964;2022-07-12T06:56:45;10.63;;;8.25;;
18176;SDS011;9213;50.858;3.964;2022-07-12T06:59:12;9.43;;;8.50;;
18176;SDS011;9213;50.858;3.964;2022-07-12T07:01:39;9.07;;;8.18;;
18176;SDS011;9213;50.858;3.964;2022-07-12T07:04:06;8.55;;;7.75;;
18176;SDS011;9213;50.858;3.964;2022-07-12T07:06:34;9.32;;;8.43;;
18176;SDS011;9213;50.858;3.964;2022-07-12T07:09:01;9.40;;;8.32;;
18176;SDS011;9213;50.858;3.964;2022-07-12T07:11:32;8.73;;;7.93;;
18176;SDS011;9213;50.858;3.964;2022-07-12T07:13:59;7.53;;;6.93;;
18176;SDS011;9213;50.858;3.964;2022-07-12T07:16:26;8.10;;;7.40;;
18176;SDS011;9213;50.858;3.964;2022-07-12T07:18:52;8.07;;;6.60;;
18176;SDS011;9213;50.858;3.964;2022-07-12T07:21:19;10.00;;;7.43;;
18176;SDS011;9213;50.858;3.964;2022-07-12T07:23:48;8.02;;;7.32;;
18176;SDS011;9213;50.858;3.964;2022-07-12T07:26:14;7.43;;;6.57;;
18176;SDS011;9213;50.858;3.964;2022-07-12T07:28:41;7.43;;;6.20;;
18176;SDS011;9213;50.858;3.964;2022-07-12T07:31:26;7.30;;;6.60;;
18176;SDS011;9213;50.858;3.964;2022-07-12T07:33:53;8.13;;;6.65;;
18176;SDS011;9213;50.858;3.964;2022-07-12T07:36:20;7.00;;;6.40;;
18176;SDS011;9213;50.858;3.964;2022-07-12T07:38:48;7.82;;;7.03;;
18176;SDS011;9213;50.858;3.964;2022-07-12T07:41:15;6.93;;;6.32;;
18176;SDS011;9213;50.858;3.964;2022-07-12T07:43:42;6.43;;;5.82;;
18176;SDS011;9213;50.858;3.964;2022-07-12T07:46:09;7.32;;;5.80;;
18176;SDS011;9213;50.858;3.964;2022-07-12T07:48:35;6.68;;;6.15;;
18176;SDS011;9213;50.858;3.964;2022-07-12T07:51:02;7.20;;;5.80;;
18176;SDS011;9213;50.858;3.964;2022-07-12T07:53:29;7.85;;;7.15;;
18176;SDS011;9213;50.858;3.964;2022-07-12T07:55:57;7.53;;;5.70;;
18176;SDS011;9213;50.858;3.964;2022-07-12T07:58:24;6.25;;;5.75;;
18176;SDS011;9213;50.858;3.964;2022-07-12T08:00:51;7.90;;;6.32;;
18176;SDS011;9213;50.858;3.964;2022-07-12T08:03:19;7.25;;;5.80;;
18176;SDS011;9213;50.858;3.964;2022-07-12T08:05:46;5.80;;;5.40;;
18176;SDS011;9213;50.858;3.964;2022-07-12T08:08:13;6.30;;;5.53;;
18176;SDS011;9213;50.858;3.964;2022-07-12T08:10:40;5.40;;;4.90;;
18176;SDS011;9213;50.858;3.964;2022-07-12T08:13:08;6.32;;;5.63;;
18176;SDS011;9213;50.858;3.964;2022-07-12T08:15:35;6.32;;;5.43;;
18176;SDS011;9213;50.858;3.964;2022-07-12T08:18:03;6.05;;;5.55;;
18176;SDS011;9213;50.858;3.964;2022-07-12T08:20:30;5.50;;;5.00;;
18176;SDS011;9213;50.858;3.964;2022-07-12T08:22:57;6.30;;;5.70;;
18176;SDS011;9213;50.858;3.964;2022-07-12T08:25:24;5.60;;;5.07;;
18176;SDS011;9213;50.858;3.964;2022-07-12T08:27:51;6.13;;;5.25;;
18176;SDS011;9213;50.858;3.964;2022-07-12T08:30:19;6.25;;;5.50;;
18176;SDS011;9213;50.858;3.964;2022-07-12T08:32:46;6.13;;;5.30;;
18176;SDS011;9213;50.858;3.964;2022-07-12T08:35:13;6.35;;;5.63;;
18176;SDS011;9213;50.858;3.964;2022-07-12T08:37:40;6.88;;;6.28;;
18176;SDS011;9213;50.858;3.964;2022-07-12T08:40:07;5.15;;;4.75;;
18176;SDS011;9213;50.858;3.964;2022-07-12T08:42:35;5.72;;;5.22;;
18176;SDS011;9213;50.858;3.964;2022-07-12T08:45:06;5.45;;;5.00;;
18176;SDS011;9213;50.858;3.964;2022-07-12T08:47:35;6.00;;;5.40;;
18176;SDS011;9213;50.858;3.964;2022-07-12T08:50:09;5.85;;;5.18;;
18176;SDS011;9213;50.858;3.964;2022-07-12T08:52:38;5.75;;;5.18;;
18176;SDS011;9213;50.858;3.964;2022-07-12T08:55:16;5.50;;;5.00;;
18176;SDS011;9213;50.858;3.964;2022-07-12T08:57:44;5.20;;;4.70;;
18176;SDS011;9213;50.858;3.964;2022-07-12T09:00:11;5.60;;;4.90;;
18176;SDS011;9213;50.858;3.964;2022-07-12T09:02:50;5.20;;;4.75;;
18176;SDS011;9213;50.858;3.964;2022-07-12T09:05:19;5.28;;;4.88;;
18176;SDS011;9213;50.858;3.964;2022-07-12T09:07:48;6.22;;;5.32;;
18176;SDS011;9213;50.858;3.964;2022-07-12T09:10:16;4.78;;;4.38;;
18176;SDS011;9213;50.858;3.964;2022-07-12T09:12:43;5.63;;;4.60;;
18176;SDS011;9213;50.858;3.964;2022-07-12T09:15:15;6.07;;;4.65;;
18176;SDS011;9213;50.858;3.964;2022-07-12T09:17:55;6.90;;;4.90;;
18176;SDS011;9213;50.858;3.964;2022-07-12T09:20:26;4.18;;;3.88;;
18176;SDS011;9213;50.858;3.964;2022-07-12T09:22:55;4.22;;;3.85;;
18176;SDS011;9213;50.858;3.964;2022-07-12T09:25:24;4.43;;;4.03;;
18176;SDS011;9213;50.858;3.964;2022-07-12T09:27:51;5.55;;;5.00;;
18176;SDS011;9213;50.858;3.964;2022-07-12T09:30:19;5.10;;;4.70;;
18176;SDS011;9213;50.858;3.964;2022-07-12T09:32:51;5.03;;;4.38;;
18176;SDS011;9213;50.858;3.964;2022-07-12T09:35:46;6.57;;;5.00;;
18176;SDS011;9213;50.858;3.964;2022-07-12T09:38:34;5.38;;;4.00;;
18176;SDS011;9213;50.858;3.964;2022-07-12T09:41:02;4.30;;;3.90;;
18176;SDS011;9213;50.858;3.964;2022-07-12T09:43:29;4.45;;;4.05;;
18176;SDS011;9213;50.858;3.964;2022-07-12T09:45:57;6.40;;;4.43;;
18176;SDS011;9213;50.858;3.964;2022-07-12T09:48:25;4.28;;;3.58;;
18176;SDS011;9213;50.858;3.964;2022-07-12T09:50:57;4.00;;;3.60;;
18176;SDS011;9213;50.858;3.964;2022-07-12T09:53:27;3.97;;;3.67;;
18176;SDS011;9213;50.858;3.964;2022-07-12T09:55:54;4.18;;;3.72;;
18176;SDS011;9213;50.858;3.964;2022-07-12T09:58:22;5.35;;;4.18;;
18176;SDS011;9213;50.858;3.964;2022-07-12T10:00:52;5.43;;;4.47;;
18176;SDS011;9213;50.858;3.964;2022-07-12T10:03:23;5.32;;;3.97;;
18176;SDS011;9213;50.858;3.964;2022-07-12T10:05:50;4.40;;;3.63;;
18176;SDS011;9213;50.858;3.964;2022-07-12T10:08:20;5.45;;;4.00;;
18176;SDS011;9213;50.858;3.964;2022-07-12T10:10:48;4.40;;;3.97;;
18176;SDS011;9213;50.858;3.964;2022-07-12T10:13:16;3.72;;;3.42;;
18176;SDS011;9213;50.858;3.964;2022-07-12T10:15:44;3.90;;;3.60;;
18176;SDS011;9213;50.858;3.964;2022-07-12T10:18:16;3.72;;;3.30;;
18176;SDS011;9213;50.858;3.964;2022-07-12T10:20:44;5.25;;;3.00;;
18176;SDS011;9213;50.858;3.964;2022-07-12T10:23:32;5.75;;;3.28;;
18176;SDS011;9213;50.858;3.964;2022-07-12T10:28:59;5.53;;;3.67;;
18176;SDS011;9213;50.858;3.964;2022-07-12T10:31:28;7.00;;;3.60;;
18176;SDS011;9213;50.858;3.964;2022-07-12T10:34:19;4.03;;;2.97;;
18176;SDS011;9213;50.858;3.964;2022-07-12T10:37:09;3.72;;;2.85;;
18176;SDS011;9213;50.858;3.964;2022-07-12T10:39:38;3.05;;;2.85;;
18176;SDS011;9213;50.858;3.964;2022-07-12T10:42:15;3.17;;;2.88;;
18176;SDS011;9213;50.858;3.964;2022-07-12T10:44:44;3.97;;;3.10;;
18176;SDS011;9213;50.858;3.964;2022-07-12T10:47:12;2.90;;;2.70;;
18176;SDS011;9213;50.858;3.964;2022-07-12T10:49:47;2.60;;;2.40;;
18176;SDS011;9213;50.858;3.964;2022-07-12T10:52:17;2.90;;;2.70;;
18176;SDS011;9213;50.858;3.964;2022-07-12T10:57:44;4.13;;;2.80;;
18176;SDS011;9213;50.858;3.964;2022-07-12T11:00:15;4.57;;;2.92;;
18176;SDS011;9213;50.858;3.964;2022-07-12T11:02:43;5.22;;;2.58;;
18176;SDS011;9213;50.858;3.964;2022-07-12T11:05:10;3.90;;;2.65;;
18176;SDS011;9213;50.858;3.964;2022-07-12T11:07:36;3.00;;;2.70;;
18176;SDS011;9213;50.858;3.964;2022-07-12T11:10:05;2.95;;;2.50;;
18176;SDS011;9213;50.858;3.964;2022-07-12T11:12:34;2.88;;;2.65;;
18176;SDS011;9213;50.858;3.964;2022-07-12T11:15:02;2.67;;;2.47;;
18176;SDS011;9213;50.858;3.964;2022-07-12T11:17:31;4.22;;;2.80;;
18176;SDS011;9213;50.858;3.964;2022-07-12T11:20:08;4.63;;;2.95;;
18176;SDS011;9213;50.858;3.964;2022-07-12T11:22:37;4.53;;;3.05;;
18176;SDS011;9213;50.858;3.964;2022-07-12T11:25:05;2.78;;;2.58;;
18176;SDS011;9213;50.858;3.964;2022-07-12T11:27:36;2.65;;;2.45;;
18176;SDS011;9213;50.858;3.964;2022-07-12T11:30:04;2.58;;;2.38;;
18176;SDS011;9213;50.858;3.964;2022-07-12T11:32:35;2.85;;;2.65;;
18176;SDS011;9213;50.858;3.964;2022-07-12T11:35:03;2.22;;;2.13;;
18176;SDS011;9213;50.858;3.964;2022-07-12T11:37:47;4.63;;;2.90;;
18176;SDS011;9213;50.858;3.964;2022-07-12T11:40:15;3.15;;;2.83;;
18176;SDS011;9213;50.858;3.964;2022-07-12T11:42:52;3.85;;;2.80;;
18176;SDS011;9213;50.858;3.964;2022-07-12T11:45:20;2.40;;;2.20;;
18176;SDS011;9213;50.858;3.964;2022-07-12T11:47:47;2.55;;;2.25;;
18176;SDS011;9213;50.858;3.964;2022-07-12T11:50:16;2.60;;;2.40;;
18176;SDS011;9213;50.858;3.964;2022-07-12T11:52:43;2.38;;;2.17;;
18176;SDS011;9213;50.858;3.964;2022-07-12T11:55:11;2.22;;;1.90;;
18176;SDS011;9213;50.858;3.964;2022-07-12T11:57:38;2.10;;;1.92;;
18176;SDS011;9213;50.858;3.964;2022-07-12T12:00:15;2.53;;;2.30;;
18176;SDS011;9213;50.858;3.964;2022-07-12T12:02:44;2.10;;;1.98;;
18176;SDS011;9213;50.858;3.964;2022-07-12T12:05:12;2.30;;;2.20;;
18176;SDS011;9213;50.858;3.964;2022-07-12T12:07:39;2.83;;;2.00;;
18176;SDS011;9213;50.858;3.964;2022-07-12T12:10:10;2.08;;;1.88;;
18176;SDS011;9213;50.858;3.964;2022-07-12T12:12:39;2.47;;;2.28;;
18176;SDS011;9213;50.858;3.964;2022-07-12T12:15:09;4.05;;;2.20;;
18176;SDS011;9213;50.858;3.964;2022-07-12T12:17:43;2.20;;;2.05;;
18176;SDS011;9213;50.858;3.964;2022-07-12T12:20:12;2.85;;;1.90;;
18176;SDS011;9213;50.858;3.964;2022-07-12T12:22:41;3.42;;;1.83;;
18176;SDS011;9213;50.858;3.964;2022-07-12T12:25:09;3.15;;;2.28;;
18176;SDS011;9213;50.858;3.964;2022-07-12T12:27:42;7.25;;;2.45;;
18176;SDS011;9213;50.858;3.964;2022-07-12T12:30:11;5.15;;;2.00;;
18176;SDS011;9213;50.858;3.964;2022-07-12T12:32:46;3.88;;;2.22;;
18176;SDS011;9213;50.858;3.964;2022-07-12T12:35:15;2.00;;;1.90;;
18176;SDS011;9213;50.858;3.964;2022-07-12T12:37:53;2.30;;;2.10;;
18176;SDS011;9213;50.858;3.964;2022-07-12T12:40:22;2.40;;;2.20;;
18176;SDS011;9213;50.858;3.964;2022-07-12T12:42:50;2.78;;;1.90;;
18176;SDS011;9213;50.858;3.964;2022-07-12T12:45:20;2.22;;;2.08;;
18176;SDS011;9213;50.858;3.964;2022-07-12T12:47:54;4.07;;;1.88;;
18176;SDS011;9213;50.858;3.964;2022-07-12T12:50:41;3.30;;;2.00;;
18176;SDS011;9213;50.858;3.964;2022-07-12T12:53:10;2.67;;;1.80;;
18176;SDS011;9213;50.858;3.964;2022-07-12T12:55:38;2.63;;;2.20;;
18176;SDS011;9213;50.858;3.964;2022-07-12T12:58:06;2.08;;;1.98;;
18176;SDS011;9213;50.858;3.964;2022-07-12T13:00:34;3.55;;;2.30;;
18176;SDS011;9213;50.858;3.964;2022-07-12T13:03:05;2.38;;;2.17;;
18176;SDS011;9213;50.858;3.964;2022-07-12T13:05:33;2.33;;;2.22;;
18176;SDS011;9213;50.858;3.964;2022-07-12T13:08:00;2.38;;;2.15;;
18176;SDS011;9213;50.858;3.964;2022-07-12T13:10:28;2.25;;;2.05;;
18176;SDS011;9213;50.858;3.964;2022-07-12T13:12:55;2.10;;;1.90;;
18176;SDS011;9213;50.858;3.964;2022-07-12T13:15:22;2.72;;;2.00;;
18176;SDS011;9213;50.858;3.964;2022-07-12T13:17:49;2.25;;;2.05;;
18176;SDS011;9213;50.858;3.964;2022-07-12T13:20:17;3.17;;;2.00;;
18176;SDS011;9213;50.858;3.964;2022-07-12T13:22:44;2.65;;;1.92;;
18176;SDS011;9213;50.858;3.964;2022-07-12T13:25:11;2.35;;;1.90;;
18176;SDS011;9213;50.858;3.964;2022-07-12T13:27:39;3.58;;;1.80;;
18176;SDS011;9213;50.858;3.964;2022-07-12T13:30:08;2.67;;;2.10;;
18176;SDS011;9213;50.858;3.964;2022-07-12T13:32:36;2.40;;;1.92;;
18176;SDS011;9213;50.858;3.964;2022-07-12T13:35:04;2.13;;;2.03;;
18176;SDS011;9213;50.858;3.964;2022-07-12T13:37:33;3.17;;;2.15;;
18176;SDS011;9213;50.858;3.964;2022-07-12T13:40:01;4.20;;;2.05;;
18176;SDS011;9213;50.858;3.964;2022-07-12T13:42:40;1.55;;;1.50;;
18176;SDS011;9213;50.858;3.964;2022-07-12T13:45:08;1.77;;;1.60;;
18176;SDS011;9213;50.858;3.964;2022-07-12T13:47:36;2.28;;;1.60;;
18176;SDS011;9213;50.858;3.964;2022-07-12T13:50:05;1.88;;;1.60;;
18176;SDS011;9213;50.858;3.964;2022-07-12T13:52:34;2.00;;;1.60;;
18176;SDS011;9213;50.858;3.964;2022-07-12T13:55:01;1.80;;;1.70;;
18176;SDS011;9213;50.858;3.964;2022-07-12T13:57:28;2.53;;;1.55;;
18176;SDS011;9213;50.858;3.964;2022-07-12T13:59:56;1.95;;;1.85;;
18176;SDS011;9213;50.858;3.964;2022-07-12T14:02:23;3.60;;;1.60;;
18176;SDS011;9213;50.858;3.964;2022-07-12T14:04:51;2.05;;;1.63;;
18176;SDS011;9213;50.858;3.964;2022-07-12T14:07:18;2.38;;;1.73;;
18176;SDS011;9213;50.858;3.964;2022-07-12T14:09:46;1.92;;;1.40;;
18176;SDS011;9213;50.858;3.964;2022-07-12T14:12:13;1.55;;;1.45;;
18176;SDS011;9213;50.858;3.964;2022-07-12T14:14:40;1.45;;;1.20;;
18176;SDS011;9213;50.858;3.964;2022-07-12T14:17:24;1.60;;;1.50;;
18176;SDS011;9213;50.858;3.964;2022-07-12T14:19:51;2.95;;;1.60;;
18176;SDS011;9213;50.858;3.964;2022-07-12T14:22:18;1.73;;;1.58;;
18176;SDS011;9213;50.858;3.964;2022-07-12T14:24:45;1.65;;;1.52;;
18176;SDS011;9213;50.858;3.964;2022-07-12T14:27:13;2.67;;;1.70;;
18176;SDS011;9213;50.858;3.964;2022-07-12T14:29:40;2.30;;;1.60;;
18176;SDS011;9213;50.858;3.964;2022-07-12T14:32:07;2.58;;;1.67;;
18176;SDS011;9213;50.858;3.964;2022-07-12T14:34:34;2.10;;;1.40;;
18176;SDS011;9213;50.858;3.964;2022-07-12T14:37:01;3.67;;;1.50;;
18176;SDS011;9213;50.858;3.964;2022-07-12T14:39:28;3.15;;;1.52;;
18176;SDS011;9213;50.858;3.964;2022-07-12T14:41:56;2.03;;;1.70;;
18176;SDS011;9213;50.858;3.964;2022-07-12T14:44:24;1.70;;;1.38;;
18176;SDS011;9213;50.858;3.964;2022-07-12T14:46:51;2.22;;;1.50;;
18176;SDS011;9213;50.858;3.964;2022-07-12T14:49:19;2.28;;;1.40;;
18176;SDS011;9213;50.858;3.964;2022-07-12T14:51:46;2.50;;;1.38;;
18176;SDS011;9213;50.858;3.964;2022-07-12T14:54:13;1.20;;;1.10;;
18176;SDS011;9213;50.858;3.964;2022-07-12T14:56:40;6.85;;;1.45;;
18176;SDS011;9213;50.858;3.964;2022-07-12T14:59:08;1.70;;;1.40;;
18176;SDS011;9213;50.858;3.964;2022-07-12T15:01:35;2.50;;;1.40;;
18176;SDS011;9213;50.858;3.964;2022-07-12T15:04:02;1.45;;;1.40;;
18176;SDS011;9213;50.858;3.964;2022-07-12T15:06:29;1.42;;;1.33;;
18176;SDS011;9213;50.858;3.964;2022-07-12T15:08:56;1.85;;;1.65;;
18176;SDS011;9213;50.858;3.964;2022-07-12T15:11:23;2.58;;;1.35;;
18176;SDS011;9213;50.858;3.964;2022-07-12T15:13:50;3.70;;;1.40;;